sensor_id;sensor_type;location;lat;lon;timestamp;pressure;altitude;pressure_sealevel;temperature;humidity
33781;BME280;20097;50.832;19.100;2023-04-25T00:02:28;97181.59;;;10.25;100.00
33781;BME280;20097;50.832;19.100;2023-04-25T00:07:36;97179.00;;;10.32;100.00
33781;BME280;20097;50.832;19.100;2023-04-25T00:12:40;97182.41;;;10.26;100.00
33781;BME280;20097;50.832;19.100;2023-04-25T00:17:44;97185.78;;;10.26;100.00
33781;BME280;20097;50.832;19.100;2023-04-25T00:22:50;97184.19;;;10.25;100.00
33781;BME280;20097;50.832;19.100;2023-04-25T00:27:55;97194.63;;;10.19;100.00
33781;BME280;20097;50.832;19.100;2023-04-25T00:32:59;97195.44;;;10.19;100.00
33781;BME280;20097;50.832;19.100;2023-04-25T00:38:04;97195.00;;;10.16;100.00
33781;BME280;20097;50.832;19.100;2023-04-25T00:43:09;97198.00;;;10.13;100.00
33781;BME280;20097;50.832;19.100;2023-04-25T00:48:13;97199.00;;;10.12;100.00
33781;BME280;20097;50.832;19.100;2023-04-25T00:53:19;97186.78;;;10.12;100.00
33781;BME280;20097;50.832;19.100;2023-04-25T00:58:23;97182.72;;;10.03;100.00
33781;BME280;20097;50.832;19.100;2023-04-25T01:03:27;97189.34;;;10.06;100.00
33781;BME280;20097;50.832;19.100;2023-04-25T01:08:34;97191.31;;;9.97;100.00
33781;BME280;20097;50.832;19.100;2023-04-25T01:13:39;97183.69;;;9.96;100.00
33781;BME280;20097;50.832;19.100;2023-04-25T01:18:43;97185.13;;;10.05;100.00
33781;BME280;20097;50.832;19.100;2023-04-25T01:23:48;97198.56;;;9.95;100.00
33781;BME280;20097;50.832;19.100;2023-04-25T01:28:55;97191.50;;;9.96;100.00
33781;BME280;20097;50.832;19.100;2023-04-25T01:33:59;97185.91;;;9.99;100.00
33781;BME280;20097;50.832;19.100;2023-04-25T01:39:06;97190.75;;;10.02;100.00
33781;BME280;20097;50.832;19.100;2023-04-25T01:44:10;97194.31;;;9.94;100.00
33781;BME280;20097;50.832;19.100;2023-04-25T01:49:14;97195.47;;;9.79;100.00
33781;BME280;20097;50.832;19.100;2023-04-25T01:54:21;97204.28;;;9.77;100.00
33781;BME280;20097;50.832;19.100;2023-04-25T01:59:25;97201.84;;;9.69;100.00
33781;BME280;20097;50.832;19.100;2023-04-25T02:04:42;97196.13;;;9.46;100.00
33781;BME280;20097;50.832;19.100;2023-04-25T02:09:49;97201.28;;;9.33;100.00
33781;BME280;20097;50.832;19.100;2023-04-25T02:14:55;97195.06;;;9.34;100.00
33781;BME280;20097;50.832;19.100;2023-04-25T02:20:12;97201.28;;;9.33;100.00
33781;BME280;20097;50.832;19.100;2023-04-25T02:25:18;97205.81;;;9.18;100.00
33781;BME280;20097;50.832;19.100;2023-04-25T02:30:22;97218.63;;;9.20;100.00
33781;BME280;20097;50.832;19.100;2023-04-25T02:35:26;97208.84;;;9.22;100.00
33781;BME280;20097;50.832;19.100;2023-04-25T02:40:31;97204.56;;;9.14;100.00
33781;BME280;20097;50.832;19.100;2023-04-25T02:45:35;97209.16;;;9.12;100.00
33781;BME280;20097;50.832;19.100;2023-04-25T02:50:40;97206.97;;;9.16;100.00
33781;BME280;20097;50.832;19.100;2023-04-25T02:55:46;97210.00;;;9.19;100.00
33781;BME280;20097;50.832;19.100;2023-04-25T03:00:50;97209.53;;;9.09;100.00
33781;BME280;20097;50.832;19.100;2023-04-25T03:05:54;97206.34;;;9.07;100.00
33781;BME280;20097;50.832;19.100;2023-04-25T03:11:06;97210.69;;;9.00;100.00
33781;BME280;20097;50.832;19.100;2023-04-25T03:16:10;97209.09;;;8.99;100.00
33781;BME280;20097;50.832;19.100;2023-04-25T03:21:14;97213.06;;;8.95;100.00
33781;BME280;20097;50.832;19.100;2023-04-25T03:26:19;97212.19;;;8.88;100.00
33781;BME280;20097;50.832;19.100;2023-04-25T03:31:24;97205.28;;;8.74;100.00
33781;BME280;20097;50.832;19.100;2023-04-25T03:36:28;97210.44;;;8.68;100.00
33781;BME280;20097;50.832;19.100;2023-04-25T03:41:33;97220.34;;;8.58;100.00
33781;BME280;20097;50.832;19.100;2023-04-25T03:46:43;97221.16;;;8.58;100.00
33781;BME280;20097;50.832;19.100;2023-04-25T03:51:48;97219.72;;;8.56;100.00
33781;BME280;20097;50.832;19.100;2023-04-25T03:56:53;97235.53;;;8.54;100.00
33781;BME280;20097;50.832;19.100;2023-04-25T04:02:00;97236.72;;;8.52;100.00
33781;BME280;20097;50.832;19.100;2023-04-25T04:07:06;97235.03;;;8.44;100.00
33781;BME280;20097;50.832;19.100;2023-04-25T04:12:14;97243.38;;;8.40;100.00
33781;BME280;20097;50.832;19.100;2023-04-25T04:17:18;97247.97;;;8.38;100.00
33781;BME280;20097;50.832;19.100;2023-04-25T04:22:24;97246.28;;;8.30;100.00
33781;BME280;20097;50.832;19.100;2023-04-25T04:27:33;97252.56;;;8.36;100.00
33781;BME280;20097;50.832;19.100;2023-04-25T04:32:59;97250.28;;;8.47;100.00
33781;BME280;20097;50.832;19.100;2023-04-25T04:38:05;97254.78;;;8.39;100.00
33781;BME280;20097;50.832;19.100;2023-04-25T04:43:12;97252.63;;;8.42;100.00
33781;BME280;20097;50.832;19.100;2023-04-25T04:48:37;97252.00;;;8.40;100.00
33781;BME280;20097;50.832;19.100;2023-04-25T04:54:05;97253.28;;;8.29;100.00
33781;BME280;20097;50.832;19.100;2023-04-25T04:59:29;97259.66;;;8.27;100.00
33781;BME280;20097;50.832;19.100;2023-04-25T05:04:41;97261.44;;;8.26;100.00
33781;BME280;20097;50.832;19.100;2023-04-25T05:10:05;97271.28;;;8.31;100.00
33781;BME280;20097;50.832;19.100;2023-04-25T05:15:37;97273.81;;;8.24;100.00
33781;BME280;20097;50.832;19.100;2023-04-25T05:21:01;97282.94;;;8.20;100.00
33781;BME280;20097;50.832;19.100;2023-04-25T05:26:41;97282.88;;;8.28;100.00
33781;BME280;20097;50.832;19.100;2023-04-25T05:32:06;97281.09;;;8.50;100.00
33781;BME280;20097;50.832;19.100;2023-04-25T05:37:11;97285.06;;;8.46;100.00
33781;BME280;20097;50.832;19.100;2023-04-25T05:42:27;97287.59;;;8.61;100.00
33781;BME280;20097;50.832;19.100;2023-04-25T05:47:58;97288.78;;;8.79;100.00
33781;BME280;20097;50.832;19.100;2023-04-25T05:53:29;97281.16;;;8.78;100.00
33781;BME280;20097;50.832;19.100;2023-04-25T05:58:36;97293.56;;;8.76;100.00
33781;BME280;20097;50.832;19.100;2023-04-25T06:03:41;97285.53;;;8.98;100.00
33781;BME280;20097;50.832;19.100;2023-04-25T06:08:46;97290.59;;;9.06;100.00
33781;BME280;20097;50.832;19.100;2023-04-25T06:13:50;97289.78;;;9.06;100.00
33781;BME280;20097;50.832;19.100;2023-04-25T06:18:56;97291.09;;;9.16;100.00
33781;BME280;20097;50.832;19.100;2023-04-25T06:24:01;97294.38;;;9.25;100.00
33781;BME280;20097;50.832;19.100;2023-04-25T06:29:05;97296.16;;;9.24;100.00
33781;BME280;20097;50.832;19.100;2023-04-25T06:34:11;97291.41;;;9.34;100.00
33781;BME280;20097;50.832;19.100;2023-04-25T06:39:16;97293.50;;;9.45;100.00
33781;BME280;20097;50.832;19.100;2023-04-25T06:44:24;97299.38;;;9.54;100.00
33781;BME280;20097;50.832;19.100;2023-04-25T06:49:30;97296.19;;;9.58;100.00
33781;BME280;20097;50.832;19.100;2023-04-25T06:54:34;97300.84;;;9.69;100.00
33781;BME280;20097;50.832;19.100;2023-04-25T06:59:51;97298.00;;;9.64;100.00
33781;BME280;20097;50.832;19.100;2023-04-25T07:04:56;97298.31;;;9.83;100.00
33781;BME280;20097;50.832;19.100;2023-04-25T07:10:03;97295.53;;;9.91;100.00
33781;BME280;20097;50.832;19.100;2023-04-25T07:15:08;97295.56;;;9.97;100.00
33781;BME280;20097;50.832;19.100;2023-04-25T07:20:18;97294.50;;;10.19;100.00
33781;BME280;20097;50.832;19.100;2023-04-25T07:25:23;97298.09;;;10.18;100.00
33781;BME280;20097;50.832;19.100;2023-04-25T07:30:28;97298.72;;;10.20;100.00
33781;BME280;20097;50.832;19.100;2023-04-25T07:35:34;97309.59;;;10.30;100.00
33781;BME280;20097;50.832;19.100;2023-04-25T07:40:38;97302.44;;;10.58;100.00
33781;BME280;20097;50.832;19.100;2023-04-25T07:45:44;97305.22;;;10.44;100.00
33781;BME280;20097;50.832;19.100;2023-04-25T07:50:51;97308.41;;;10.46;100.00
33781;BME280;20097;50.832;19.100;2023-04-25T07:55:56;97306.38;;;10.35;100.00
33781;BME280;20097;50.832;19.100;2023-04-25T08:01:00;97309.00;;;10.41;100.00
33781;BME280;20097;50.832;19.100;2023-04-25T08:06:12;97306.84;;;10.58;99.49
33781;BME280;20097;50.832;19.100;2023-04-25T08:11:32;97315.72;;;10.70;99.16
33781;BME280;20097;50.832;19.100;2023-04-25T08:16:36;97310.88;;;10.73;100.00
33781;BME280;20097;50.832;19.100;2023-04-25T08:21:42;97309.50;;;10.77;98.69
33781;BME280;20097;50.832;19.100;2023-04-25T08:26:51;97309.47;;;10.58;88.97
33781;BME280;20097;50.832;19.100;2023-04-25T08:31:57;97321.13;;;10.62;87.82
33781;BME280;20097;50.832;19.100;2023-04-25T08:37:03;97317.69;;;10.55;89.69
33781;BME280;20097;50.832;19.100;2023-04-25T08:42:22;97318.53;;;10.62;92.83
33781;BME280;20097;50.832;19.100;2023-04-25T08:47:27;97325.56;;;10.74;89.99
33781;BME280;20097;50.832;19.100;2023-04-25T08:52:36;97314.31;;;10.74;89.58
33781;BME280;20097;50.832;19.100;2023-04-25T08:57:41;97329.72;;;10.49;83.98
33781;BME280;20097;50.832;19.100;2023-04-25T09:02:46;97328.31;;;10.53;83.48
33781;BME280;20097;50.832;19.100;2023-04-25T09:07:52;97331.41;;;10.83;83.97
33781;BME280;20097;50.832;19.100;2023-04-25T09:13:04;97343.84;;;10.81;83.17
33781;BME280;20097;50.832;19.100;2023-04-25T09:18:24;97331.78;;;10.80;85.53
33781;BME280;20097;50.832;19.100;2023-04-25T09:23:41;97335.63;;;10.84;83.61
33781;BME280;20097;50.832;19.100;2023-04-25T09:28:45;97333.41;;;10.81;82.01
33781;BME280;20097;50.832;19.100;2023-04-25T09:33:58;97334.78;;;10.77;83.57
33781;BME280;20097;50.832;19.100;2023-04-25T09:39:12;97326.19;;;10.76;83.57
33781;BME280;20097;50.832;19.100;2023-04-25T09:44:24;97335.06;;;11.21;81.04
33781;BME280;20097;50.832;19.100;2023-04-25T09:49:29;97332.03;;;11.37;80.77
33781;BME280;20097;50.832;19.100;2023-04-25T09:54:47;97337.06;;;11.45;80.29
33781;BME280;20097;50.832;19.100;2023-04-25T09:59:58;97328.81;;;11.29;79.89
33781;BME280;20097;50.832;19.100;2023-04-25T10:05:15;97334.44;;;11.65;80.57
33781;BME280;20097;50.832;19.100;2023-04-25T10:10:22;97328.44;;;11.64;73.33
33781;BME280;20097;50.832;19.100;2023-04-25T10:15:28;97340.25;;;11.86;70.60
33781;BME280;20097;50.832;19.100;2023-04-25T10:20:32;97352.81;;;12.22;66.83
33781;BME280;20097;50.832;19.100;2023-04-25T10:25:38;97325.28;;;12.13;67.13
33781;BME280;20097;50.832;19.100;2023-04-25T10:30:56;97325.06;;;12.21;67.88
33781;BME280;20097;50.832;19.100;2023-04-25T10:36:09;97325.88;;;12.15;65.79
33781;BME280;20097;50.832;19.100;2023-04-25T10:41:15;97338.16;;;12.14;62.53
33781;BME280;20097;50.832;19.100;2023-04-25T10:46:22;97335.66;;;12.39;64.02
33781;BME280;20097;50.832;19.100;2023-04-25T10:51:28;97324.59;;;12.37;63.48
33781;BME280;20097;50.832;19.100;2023-04-25T10:56:54;97324.09;;;12.02;62.70
33781;BME280;20097;50.832;19.100;2023-04-25T11:01:57;97331.81;;;11.84;62.77
33781;BME280;20097;50.832;19.100;2023-04-25T11:07:09;97325.53;;;11.98;63.69
33781;BME280;20097;50.832;19.100;2023-04-25T11:12:16;97323.31;;;11.95;66.35
33781;BME280;20097;50.832;19.100;2023-04-25T11:17:20;97329.00;;;11.66;65.24
33781;BME280;20097;50.832;19.100;2023-04-25T11:22:25;97334.66;;;11.63;65.47
33781;BME280;20097;50.832;19.100;2023-04-25T11:27:31;97324.47;;;12.19;68.05
33781;BME280;20097;50.832;19.100;2023-04-25T11:32:35;97325.16;;;11.95;65.47
33781;BME280;20097;50.832;19.100;2023-04-25T11:37:40;97333.44;;;11.59;65.91
33781;BME280;20097;50.832;19.100;2023-04-25T11:42:46;97328.22;;;11.72;65.37
33781;BME280;20097;50.832;19.100;2023-04-25T11:47:51;97334.63;;;11.83;65.18
33781;BME280;20097;50.832;19.100;2023-04-25T11:52:56;97337.03;;;11.58;64.11
33781;BME280;20097;50.832;19.100;2023-04-25T11:58:03;97343.91;;;11.46;64.35
33781;BME280;20097;50.832;19.100;2023-04-25T12:03:09;97335.03;;;11.54;66.44
33781;BME280;20097;50.832;19.100;2023-04-25T12:08:14;97337.88;;;11.46;67.28
33781;BME280;20097;50.832;19.100;2023-04-25T12:13:24;97324.19;;;11.50;66.52
33781;BME280;20097;50.832;19.100;2023-04-25T12:18:29;97328.22;;;11.46;66.84
33781;BME280;20097;50.832;19.100;2023-04-25T12:23:33;97333.44;;;11.46;67.00
33781;BME280;20097;50.832;19.100;2023-04-25T12:28:39;97331.03;;;11.45;66.24
33781;BME280;20097;50.832;19.100;2023-04-25T12:33:43;97342.69;;;11.68;65.92
33781;BME280;20097;50.832;19.100;2023-04-25T12:38:50;97339.84;;;11.76;65.26
33781;BME280;20097;50.832;19.100;2023-04-25T12:43:56;97338.44;;;11.93;66.85
33781;BME280;20097;50.832;19.100;2023-04-25T12:49:00;97344.00;;;12.03;65.45
33781;BME280;20097;50.832;19.100;2023-04-25T12:54:19;97332.63;;;11.59;67.12
33781;BME280;20097;50.832;19.100;2023-04-25T12:59:25;97332.03;;;11.57;68.46
33781;BME280;20097;50.832;19.100;2023-04-25T13:04:29;97332.44;;;11.67;70.11
33781;BME280;20097;50.832;19.100;2023-04-25T13:09:34;97329.22;;;11.65;69.80
33781;BME280;20097;50.832;19.100;2023-04-25T13:14:39;97324.19;;;11.44;69.71
33781;BME280;20097;50.832;19.100;2023-04-25T13:19:43;97332.81;;;11.57;69.30
33781;BME280;20097;50.832;19.100;2023-04-25T13:24:48;97337.25;;;11.37;68.07
33781;BME280;20097;50.832;19.100;2023-04-25T13:29:53;97338.25;;;11.49;69.44
33781;BME280;20097;50.832;19.100;2023-04-25T13:34:57;97337.66;;;11.28;69.04
33781;BME280;20097;50.832;19.100;2023-04-25T13:40:02;97328.63;;;11.30;72.09
33781;BME280;20097;50.832;19.100;2023-04-25T13:45:09;97330.22;;;11.31;69.23
33781;BME280;20097;50.832;19.100;2023-04-25T13:50:13;97333.25;;;11.28;70.36
33781;BME280;20097;50.832;19.100;2023-04-25T13:55:18;97329.63;;;11.23;69.84
33781;BME280;20097;50.832;19.100;2023-04-25T14:00:24;97333.84;;;11.11;69.11
33781;BME280;20097;50.832;19.100;2023-04-25T14:05:28;97341.28;;;11.20;68.69
33781;BME280;20097;50.832;19.100;2023-04-25T14:10:32;97335.03;;;11.01;68.13
33781;BME280;20097;50.832;19.100;2023-04-25T14:15:37;97339.09;;;11.24;69.42
33781;BME280;20097;50.832;19.100;2023-04-25T14:20:41;97347.09;;;11.22;69.57
33781;BME280;20097;50.832;19.100;2023-04-25T14:25:45;97336.66;;;11.22;71.00
33781;BME280;20097;50.832;19.100;2023-04-25T14:30:52;97351.94;;;11.25;70.28
33781;BME280;20097;50.832;19.100;2023-04-25T14:35:56;97352.91;;;10.98;70.17
33781;BME280;20097;50.832;19.100;2023-04-25T14:41:00;97345.06;;;11.04;69.70
33781;BME280;20097;50.832;19.100;2023-04-25T14:46:06;97348.50;;;11.18;72.36
33781;BME280;20097;50.832;19.100;2023-04-25T14:51:10;97352.16;;;11.24;72.02
33781;BME280;20097;50.832;19.100;2023-04-25T14:56:14;97348.94;;;11.41;72.50
33781;BME280;20097;50.832;19.100;2023-04-25T15:01:20;97355.34;;;11.45;70.09
33781;BME280;20097;50.832;19.100;2023-04-25T15:06:24;97360.34;;;11.60;71.09
33781;BME280;20097;50.832;19.100;2023-04-25T15:11:31;97356.75;;;11.61;69.82
33781;BME280;20097;50.832;19.100;2023-04-25T15:16:37;97355.97;;;11.73;68.32
33781;BME280;20097;50.832;19.100;2023-04-25T15:21:41;97361.78;;;11.82;67.98
33781;BME280;20097;50.832;19.100;2023-04-25T15:26:45;97367.59;;;11.97;67.68
33781;BME280;20097;50.832;19.100;2023-04-25T15:31:50;97362.19;;;11.85;66.67
33781;BME280;20097;50.832;19.100;2023-04-25T15:36:54;97359.94;;;11.89;67.56
33781;BME280;20097;50.832;19.100;2023-04-25T15:42:00;97361.28;;;12.24;68.13
33781;BME280;20097;50.832;19.100;2023-04-25T15:47:06;97353.06;;;12.07;66.76
33781;BME280;20097;50.832;19.100;2023-04-25T15:52:10;97357.50;;;12.00;66.34
33781;BME280;20097;50.832;19.100;2023-04-25T15:57:14;97365.00;;;11.77;65.38
33781;BME280;20097;50.832;19.100;2023-04-25T16:02:20;97359.94;;;11.82;67.67
33781;BME280;20097;50.832;19.100;2023-04-25T16:07:24;97359.56;;;11.59;67.81
33781;BME280;20097;50.832;19.100;2023-04-25T16:12:29;97355.13;;;11.27;69.98
33781;BME280;20097;50.832;19.100;2023-04-25T16:17:35;97353.72;;;11.12;71.22
33781;BME280;20097;50.832;19.100;2023-04-25T16:22:40;97360.34;;;11.14;72.75
33781;BME280;20097;50.832;19.100;2023-04-25T16:27:44;97361.16;;;11.21;72.77
33781;BME280;20097;50.832;19.100;2023-04-25T16:32:49;97364.00;;;11.33;71.74
33781;BME280;20097;50.832;19.100;2023-04-25T16:37:53;97358.94;;;11.12;70.77
33781;BME280;20097;50.832;19.100;2023-04-25T16:42:58;97360.31;;;10.94;69.97
33781;BME280;20097;50.832;19.100;2023-04-25T16:48:03;97362.13;;;10.81;71.30
33781;BME280;20097;50.832;19.100;2023-04-25T16:53:07;97365.31;;;10.70;71.54
33781;BME280;20097;50.832;19.100;2023-04-25T16:58:12;97365.28;;;10.57;73.60
33781;BME280;20097;50.832;19.100;2023-04-25T17:03:17;97367.06;;;10.56;73.77
33781;BME280;20097;50.832;19.100;2023-04-25T17:08:22;97380.72;;;10.58;73.55
33781;BME280;20097;50.832;19.100;2023-04-25T17:13:26;97385.75;;;10.60;73.17
33781;BME280;20097;50.832;19.100;2023-04-25T17:18:34;97390.75;;;10.55;71.10
33781;BME280;20097;50.832;19.100;2023-04-25T17:23:38;97387.06;;;10.43;71.19
33781;BME280;20097;50.832;19.100;2023-04-25T17:28:47;97396.03;;;10.27;73.14
33781;BME280;20097;50.832;19.100;2023-04-25T17:33:53;97407.97;;;10.09;73.48
33781;BME280;20097;50.832;19.100;2023-04-25T17:38:57;97407.09;;;10.02;73.73
33781;BME280;20097;50.832;19.100;2023-04-25T17:44:01;97413.22;;;9.88;74.55
33781;BME280;20097;50.832;19.100;2023-04-25T17:49:07;97424.56;;;9.73;74.34
33781;BME280;20097;50.832;19.100;2023-04-25T17:54:11;97429.41;;;9.55;76.41
33781;BME280;20097;50.832;19.100;2023-04-25T17:59:15;97432.59;;;9.30;78.65
33781;BME280;20097;50.832;19.100;2023-04-25T18:04:20;97441.00;;;9.11;81.75
33781;BME280;20097;50.832;19.100;2023-04-25T18:09:26;97450.94;;;9.01;82.66
33781;BME280;20097;50.832;19.100;2023-04-25T18:14:30;97456.88;;;8.80;85.14
33781;BME280;20097;50.832;19.100;2023-04-25T18:19:37;97461.94;;;8.67;88.84
33781;BME280;20097;50.832;19.100;2023-04-25T18:24:41;97472.81;;;8.56;91.21
33781;BME280;20097;50.832;19.100;2023-04-25T18:29:46;97480.06;;;8.46;92.68
33781;BME280;20097;50.832;19.100;2023-04-25T18:34:51;97485.81;;;8.27;96.47
33781;BME280;20097;50.832;19.100;2023-04-25T18:39:55;97490.16;;;8.12;99.90
33781;BME280;20097;50.832;19.100;2023-04-25T18:45:00;97497.41;;;8.02;100.00
33781;BME280;20097;50.832;19.100;2023-04-25T18:50:07;97505.00;;;7.89;100.00
33781;BME280;20097;50.832;19.100;2023-04-25T18:55:11;97508.41;;;7.89;100.00
33781;BME280;20097;50.832;19.100;2023-04-25T19:00:15;97517.56;;;8.00;100.00
33781;BME280;20097;50.832;19.100;2023-04-25T19:05:21;97528.41;;;8.03;100.00
33781;BME280;20097;50.832;19.100;2023-04-25T19:10:25;97531.34;;;8.00;100.00
33781;BME280;20097;50.832;19.100;2023-04-25T19:15:30;97519.00;;;8.02;100.00
33781;BME280;20097;50.832;19.100;2023-04-25T19:20:36;97523.16;;;8.11;100.00
33781;BME280;20097;50.832;19.100;2023-04-25T19:25:41;97535.69;;;8.08;100.00
33781;BME280;20097;50.832;19.100;2023-04-25T19:30:45;97551.66;;;8.19;100.00
33781;BME280;20097;50.832;19.100;2023-04-25T19:35:50;97565.75;;;8.25;100.00
33781;BME280;20097;50.832;19.100;2023-04-25T19:40:54;97565.22;;;8.29;100.00
33781;BME280;20097;50.832;19.100;2023-04-25T19:45:58;97560.31;;;8.34;100.00
33781;BME280;20097;50.832;19.100;2023-04-25T19:51:04;97566.59;;;8.40;100.00
33781;BME280;20097;50.832;19.100;2023-04-25T19:56:09;97561.47;;;8.32;100.00
33781;BME280;20097;50.832;19.100;2023-04-25T20:01:13;97573.22;;;8.28;100.00
33781;BME280;20097;50.832;19.100;2023-04-25T20:06:20;97574.88;;;8.21;100.00
33781;BME280;20097;50.832;19.100;2023-04-25T20:11:24;97573.25;;;8.20;100.00
33781;BME280;20097;50.832;19.100;2023-04-25T20:16:30;97579.53;;;8.11;100.00
33781;BME280;20097;50.832;19.100;2023-04-25T20:21:36;97578.78;;;8.02;100.00
33781;BME280;20097;50.832;19.100;2023-04-25T20:26:40;97579.22;;;8.06;100.00
33781;BME280;20097;50.832;19.100;2023-04-25T20:31:44;97581.91;;;7.98;100.00
33781;BME280;20097;50.832;19.100;2023-04-25T20:36:50;97581.91;;;7.98;100.00
33781;BME280;20097;50.832;19.100;2023-04-25T20:41:55;97592.66;;;7.95;100.00
33781;BME280;20097;50.832;19.100;2023-04-25T20:46:59;97591.00;;;7.94;100.00
33781;BME280;20097;50.832;19.100;2023-04-25T20:52:05;97585.53;;;7.89;100.00
33781;BME280;20097;50.832;19.100;2023-04-25T20:57:09;97582.59;;;7.92;100.00
33781;BME280;20097;50.832;19.100;2023-04-25T21:02:13;97589.75;;;7.90;100.00
33781;BME280;20097;50.832;19.100;2023-04-25T21:07:19;97593.78;;;7.92;100.00
33781;BME280;20097;50.832;19.100;2023-04-25T21:12:23;97596.78;;;7.81;100.00
33781;BME280;20097;50.832;19.100;2023-04-25T21:17:27;97598.75;;;7.79;100.00
33781;BME280;20097;50.832;19.100;2023-04-25T21:22:33;97594.72;;;7.77;100.00
33781;BME280;20097;50.832;19.100;2023-04-25T21:27:38;97603.47;;;7.76;100.00
33781;BME280;20097;50.832;19.100;2023-04-25T21:32:43;97613.88;;;7.76;100.00
33781;BME280;20097;50.832;19.100;2023-04-25T21:37:50;97614.03;;;7.74;100.00
33781;BME280;20097;50.832;19.100;2023-04-25T21:42:54;97615.03;;;7.73;100.00
33781;BME280;20097;50.832;19.100;2023-04-25T21:47:58;97612.78;;;7.70;100.00
33781;BME280;20097;50.832;19.100;2023-04-25T21:53:04;97621.59;;;7.61;100.00
33781;BME280;20097;50.832;19.100;2023-04-25T21:58:10;97636.97;;;7.71;100.00
33781;BME280;20097;50.832;19.100;2023-04-25T22:03:14;97632.78;;;7.62;100.00
33781;BME280;20097;50.832;19.100;2023-04-25T22:08:19;97638.63;;;7.64;98.79
33781;BME280;20097;50.832;19.100;2023-04-25T22:13:24;97639.16;;;7.59;96.45
33781;BME280;20097;50.832;19.100;2023-04-25T22:18:30;97645.13;;;7.60;96.78
33781;BME280;20097;50.832;19.100;2023-04-25T22:23:35;97657.66;;;7.56;92.07
33781;BME280;20097;50.832;19.100;2023-04-25T22:28:40;97655.91;;;7.49;91.18
33781;BME280;20097;50.832;19.100;2023-04-25T22:33:44;97655.09;;;7.48;90.33
33781;BME280;20097;50.832;19.100;2023-04-25T22:38:52;97669.91;;;7.40;89.34
33781;BME280;20097;50.832;19.100;2023-04-25T22:43:56;97671.53;;;7.41;90.22
33781;BME280;20097;50.832;19.100;2023-04-25T22:49:00;97677.72;;;7.40;89.49
33781;BME280;20097;50.832;19.100;2023-04-25T22:54:05;97684.19;;;7.36;88.95
33781;BME280;20097;50.832;19.100;2023-04-25T22:59:09;97686.63;;;7.37;90.95
33781;BME280;20097;50.832;19.100;2023-04-25T23:04:13;97682.59;;;7.35;90.45
33781;BME280;20097;50.832;19.100;2023-04-25T23:09:19;97685.56;;;7.24;86.96
33781;BME280;20097;50.832;19.100;2023-04-25T23:14:23;97686.06;;;7.11;84.97
33781;BME280;20097;50.832;19.100;2023-04-25T23:19:27;97700.19;;;7.09;87.66
33781;BME280;20097;50.832;19.100;2023-04-25T23:24:36;97693.56;;;6.98;88.24
33781;BME280;20097;50.832;19.100;2023-04-25T23:29:40;97697.66;;;6.84;88.94
33781;BME280;20097;50.832;19.100;2023-04-25T23:34:45;97698.16;;;6.64;87.95
33781;BME280;20097;50.832;19.100;2023-04-25T23:39:50;97705.28;;;6.54;87.20
33781;BME280;20097;50.832;19.100;2023-04-25T23:44:54;97705.59;;;6.35;88.12
33781;BME280;20097;50.832;19.100;2023-04-25T23:49:58;97703.50;;;6.30;88.70
33781;BME280;20097;50.832;19.100;2023-04-25T23:55:05;97710.44;;;6.14;88.66
